createdAt,value
2017-11-26T00:01:17.501Z,11.47
2017-11-26T00:03:46.731Z,11.73
2017-11-26T00:06:15.966Z,13.27
2017-11-26T00:08:45.154Z,13.23
2017-11-26T00:11:14.450Z,12.60
2017-11-26T00:13:44.637Z,12.47
2017-11-26T00:16:14.619Z,11.70
2017-11-26T00:18:43.839Z,12.50
2017-11-26T00:21:13.094Z,11.93
2017-11-26T00:23:42.264Z,12.13
2017-11-26T00:26:11.526Z,12.67
2017-11-26T00:28:40.734Z,13.13
2017-11-26T00:31:10.721Z,12.97
2017-11-26T00:33:39.925Z,11.73
2017-11-26T00:36:09.169Z,12.30
2017-11-26T00:38:39.119Z,13.13
2017-11-26T00:41:09.121Z,12.13
2017-11-26T00:43:38.336Z,12.67
2017-11-26T00:46:07.563Z,11.90
2017-11-26T00:48:36.776Z,12.80
2017-11-26T00:51:06.736Z,14.30
2017-11-26T00:53:35.961Z,11.87
2017-11-26T00:56:05.179Z,11.80
2017-11-26T00:58:34.434Z,11.67
2017-11-26T01:01:03.674Z,12.50
2017-11-26T01:03:33.648Z,12.87
2017-11-26T01:06:02.948Z,11.07
2017-11-26T01:08:32.148Z,12.47
2017-11-26T01:11:01.363Z,10.73
2017-11-26T01:13:30.547Z,11.50
2017-11-26T01:15:59.794Z,12.43
2017-11-26T01:18:29.743Z,13.30
2017-11-26T01:20:59.008Z,12.63
2017-11-26T01:23:28.976Z,12.53
2017-11-26T01:25:58.964Z,11.97
2017-11-26T01:28:28.236Z,13.00
2017-11-26T01:30:58.192Z,13.47
2017-11-26T01:33:27.403Z,13.60
2017-11-26T01:35:57.497Z,13.00
2017-11-26T01:38:26.711Z,12.57
2017-11-26T01:40:55.909Z,12.37
2017-11-26T01:43:25.181Z,12.13
2017-11-26T01:45:54.416Z,14.53
2017-11-26T01:48:23.629Z,12.87
2017-11-26T01:50:52.856Z,12.00
2017-11-26T01:53:22.070Z,12.67
2017-11-26T01:55:52.991Z,13.97
2017-11-26T01:58:22.210Z,13.90
2017-11-26T02:00:51.600Z,13.70
2017-11-26T02:03:20.921Z,11.97
2017-11-26T02:05:50.133Z,13.00
2017-11-26T02:08:19.413Z,12.90
2017-11-26T02:10:48.619Z,12.77
2017-11-26T02:13:17.846Z,12.20
2017-11-26T02:15:47.035Z,14.03
2017-11-26T02:18:16.269Z,12.53
2017-11-26T02:20:48.012Z,13.23
2017-11-26T02:23:19.401Z,13.13
2017-11-26T02:25:48.588Z,12.70
2017-11-26T02:28:17.799Z,12.07
2017-11-26T02:30:47.029Z,13.63
2017-11-26T02:33:33.825Z,14.00
2017-11-26T02:36:17.882Z,14.20
2017-11-26T02:38:47.159Z,13.97
2017-11-26T02:41:16.350Z,13.00
2017-11-26T02:43:45.556Z,12.40
2017-11-26T02:46:14.799Z,11.03
2017-11-26T02:48:43.988Z,11.13
2017-11-26T02:51:13.209Z,9.60
2017-11-26T02:53:42.393Z,9.40
2017-11-26T02:56:11.661Z,9.13
2017-11-26T02:58:41.679Z,10.90
2017-11-26T03:01:10.972Z,10.17
2017-11-26T03:03:40.201Z,10.40
2017-11-26T03:06:09.458Z,9.73
2017-11-26T03:08:38.670Z,10.50
2017-11-26T03:11:07.890Z,10.40
2017-11-26T03:13:37.108Z,10.47
2017-11-26T03:16:07.262Z,10.53
2017-11-26T03:18:36.394Z,11.13
2017-11-26T03:21:05.713Z,11.47
2017-11-26T03:23:35.741Z,11.73
2017-11-26T03:26:05.711Z,11.00
2017-11-26T03:28:34.915Z,11.07
2017-11-26T03:31:04.158Z,10.00
2017-11-26T03:33:34.119Z,10.40
2017-11-26T03:36:03.345Z,8.83
2017-11-26T03:38:32.531Z,11.00
2017-11-26T03:41:01.753Z,10.40
2017-11-26T03:43:31.745Z,10.50
2017-11-26T03:46:00.948Z,10.40
2017-11-26T03:48:30.144Z,10.20
2017-11-26T03:50:59.338Z,10.80
2017-11-26T03:53:28.562Z,11.60
2017-11-26T03:55:58.502Z,11.30
2017-11-26T03:58:27.733Z,11.80
2017-11-26T04:00:57.116Z,11.13
2017-11-26T04:03:26.356Z,11.70
2017-11-26T04:05:55.564Z,11.50
2017-11-26T04:08:25.502Z,10.93
2017-11-26T04:10:54.721Z,10.83
2017-11-26T04:13:23.941Z,11.67
2017-11-26T04:15:53.953Z,12.93
2017-11-26T04:18:23.140Z,10.97
2017-11-26T04:20:52.456Z,12.43
2017-11-26T04:23:21.628Z,10.87
2017-11-26T04:25:50.883Z,12.40
2017-11-26T04:28:20.104Z,11.10
2017-11-26T04:30:50.057Z,11.00
2017-11-26T04:33:20.037Z,10.33
2017-11-26T04:35:49.241Z,11.90
2017-11-26T04:38:18.470Z,11.60
2017-11-26T04:40:47.675Z,10.10
2017-11-26T04:43:16.981Z,10.33
2017-11-26T04:45:46.201Z,9.40
2017-11-26T04:48:16.189Z,9.97
2017-11-26T05:03:35.297Z,8.43
2017-11-26T05:06:04.508Z,7.93
2017-11-26T05:08:33.728Z,7.93
2017-11-26T05:11:03.157Z,6.83
2017-11-26T05:13:33.151Z,7.23
2017-11-26T05:16:02.380Z,7.87
2017-11-26T05:18:32.326Z,6.60
2017-11-26T05:21:01.553Z,7.20
2017-11-26T05:23:30.731Z,7.10
2017-11-26T05:25:59.942Z,6.43
2017-11-26T05:28:29.155Z,8.00
2017-11-26T05:30:58.435Z,5.90
2017-11-26T05:33:27.664Z,7.50
2017-11-26T05:35:57.633Z,6.20
2017-11-26T05:38:26.871Z,7.03
2017-11-26T05:40:56.085Z,6.83
2017-11-26T05:43:26.060Z,5.97
2017-11-26T05:45:55.280Z,5.50
2017-11-26T05:48:24.481Z,7.30
2017-11-26T05:50:53.737Z,6.13
2017-11-26T05:53:23.032Z,6.83
2017-11-26T05:55:52.267Z,6.80
2017-11-26T05:58:21.499Z,7.13
2017-11-26T06:00:50.742Z,7.17
2017-11-26T06:03:19.927Z,6.43
2017-11-26T06:05:49.137Z,5.43
2017-11-26T06:08:18.381Z,6.80
2017-11-26T06:10:48.350Z,6.37
2017-11-26T06:13:17.589Z,6.73
2017-11-26T06:15:46.834Z,6.73
2017-11-26T06:18:16.048Z,5.87
2017-11-26T06:20:45.237Z,7.03
2017-11-26T06:23:14.450Z,7.10
2017-11-26T06:25:43.661Z,5.77
2017-11-26T06:28:12.852Z,6.87
2017-11-26T06:30:42.069Z,7.17
2017-11-26T06:33:12.031Z,7.60
2017-11-26T06:35:41.236Z,7.90
2017-11-26T06:38:10.447Z,8.43
2017-11-26T06:40:39.645Z,6.00
2017-11-26T06:43:08.853Z,6.53
2017-11-26T06:45:38.082Z,6.67
2017-11-26T06:48:08.057Z,7.60
2017-11-26T06:50:37.329Z,6.60
2017-11-26T06:53:06.526Z,8.37
2017-11-26T06:55:35.744Z,7.60
2017-11-26T06:58:04.950Z,7.87
2017-11-26T07:00:34.154Z,8.50
2017-11-26T07:03:03.368Z,7.63
2017-11-26T07:05:32.600Z,7.60
2017-11-26T07:08:01.816Z,8.10
2017-11-26T07:10:31.088Z,8.57
2017-11-26T07:13:00.296Z,7.43
2017-11-26T07:15:29.493Z,8.23
2017-11-26T07:17:58.721Z,7.90
2017-11-26T07:20:27.964Z,8.70
2017-11-26T07:22:57.273Z,7.00
2017-11-26T07:25:27.314Z,7.57
2017-11-26T07:27:57.402Z,7.73
2017-11-26T07:30:27.391Z,8.23
2017-11-26T07:32:56.595Z,7.70
2017-11-26T07:35:26.576Z,7.87
2017-11-26T07:37:55.800Z,7.70
2017-11-26T07:40:25.005Z,8.50
2017-11-26T07:42:54.197Z,7.67
2017-11-26T07:45:23.405Z,9.00
2017-11-26T07:47:52.656Z,8.30
2017-11-26T07:50:22.649Z,7.57
2017-11-26T07:52:51.881Z,8.30
2017-11-26T07:55:21.076Z,7.07
2017-11-26T07:57:50.314Z,7.50
2017-11-26T08:00:20.298Z,7.87
2017-11-26T08:02:49.524Z,8.03
2017-11-26T08:05:18.742Z,7.40
2017-11-26T08:07:48.705Z,6.97
2017-11-26T08:10:17.951Z,6.83
2017-11-26T08:12:47.937Z,7.27
2017-11-26T08:15:17.203Z,6.80
2017-11-26T08:17:46.446Z,6.30
2017-11-26T08:20:15.649Z,7.60
2017-11-26T08:22:45.642Z,7.50
2017-11-26T08:25:14.824Z,8.60
2017-11-26T08:27:44.022Z,6.43
2017-11-26T08:30:14.158Z,7.83
2017-11-26T08:32:43.364Z,7.47
2017-11-26T08:35:13.022Z,6.60
2017-11-26T08:37:42.281Z,6.63
2017-11-26T08:40:12.325Z,6.80
2017-11-26T08:42:41.768Z,6.07
2017-11-26T08:45:11.092Z,6.43
2017-11-26T08:47:41.173Z,7.80
2017-11-26T08:50:10.381Z,8.20
2017-11-26T08:52:39.640Z,8.40
2017-11-26T08:55:09.608Z,8.63
2017-11-26T08:57:38.835Z,7.40
2017-11-26T09:00:08.837Z,7.40
2017-11-26T09:02:38.084Z,8.20
2017-11-26T09:05:07.360Z,6.80
2017-11-26T09:07:42.225Z,7.57
2017-11-26T09:10:11.429Z,6.70
2017-11-26T09:12:40.660Z,6.63
2017-11-26T09:15:09.897Z,6.90
2017-11-26T09:17:39.066Z,6.30
2017-11-26T09:20:08.248Z,8.07
2017-11-26T09:22:38.243Z,6.30
2017-11-26T09:25:07.441Z,7.10
2017-11-26T09:27:36.670Z,6.50
2017-11-26T09:30:06.657Z,7.07
2017-11-26T09:32:36.093Z,7.60
2017-11-26T09:35:06.083Z,7.77
2017-11-26T09:37:35.372Z,8.17
2017-11-26T09:40:04.570Z,7.60
2017-11-26T09:42:34.010Z,8.20
2017-11-26T09:45:04.020Z,7.20
2017-11-26T09:47:33.984Z,6.80
2017-11-26T09:50:03.258Z,7.13
2017-11-26T09:52:32.630Z,8.20
2017-11-26T09:55:01.892Z,7.97
2017-11-26T09:57:31.245Z,7.97
2017-11-26T10:00:01.253Z,7.30
2017-11-26T10:02:31.239Z,6.60
2017-11-26T10:05:00.536Z,6.70
2017-11-26T10:07:29.760Z,6.70
2017-11-26T10:09:59.034Z,8.20
2017-11-26T10:12:28.291Z,8.13
2017-11-26T10:14:57.494Z,6.40
2017-11-26T10:17:26.712Z,7.20
2017-11-26T10:19:55.927Z,7.23
2017-11-26T10:22:25.138Z,6.13
2017-11-26T10:24:54.365Z,6.87
2017-11-26T10:27:23.613Z,6.70
2017-11-26T10:29:53.589Z,7.73
2017-11-26T10:32:22.817Z,7.43
2017-11-26T10:34:52.016Z,7.00
2017-11-26T10:37:21.293Z,6.77
2017-11-26T10:39:50.591Z,6.47
2017-11-26T10:42:19.808Z,7.03
2017-11-26T10:44:51.697Z,6.80
2017-11-26T10:47:20.888Z,6.87
2017-11-26T10:49:50.097Z,6.07
2017-11-26T10:52:19.344Z,5.70
2017-11-26T10:54:48.612Z,6.00
2017-11-26T10:57:18.585Z,6.13
2017-11-26T10:59:47.771Z,6.97
2017-11-26T11:02:16.974Z,6.40
2017-11-26T11:04:46.190Z,5.90
2017-11-26T11:07:15.385Z,6.40
2017-11-26T11:09:46.108Z,6.20
2017-11-26T11:12:15.353Z,5.90
2017-11-26T11:14:45.313Z,7.23
2017-11-26T11:17:14.524Z,7.03
2017-11-26T11:19:43.734Z,8.10
2017-11-26T11:22:12.957Z,7.30
2017-11-26T11:24:42.919Z,7.23
2017-11-26T11:27:12.139Z,6.27
2017-11-26T11:29:41.352Z,6.37
2017-11-26T11:32:10.592Z,6.30
2017-11-26T11:34:39.780Z,7.67
2017-11-26T11:37:08.996Z,6.93
2017-11-26T11:39:38.230Z,6.93
2017-11-26T11:42:07.468Z,5.77
2017-11-26T11:44:36.651Z,6.40
2017-11-26T11:47:06.631Z,6.87
2017-11-26T11:49:35.857Z,6.90
2017-11-26T11:52:05.821Z,6.10
2017-11-26T11:54:35.106Z,5.73
2017-11-26T11:57:04.323Z,5.93
2017-11-26T11:59:33.646Z,5.47
2017-11-26T12:02:02.849Z,7.17
2017-11-26T12:04:32.091Z,6.30
2017-11-26T12:07:01.272Z,6.50
2017-11-26T12:09:31.240Z,6.30
2017-11-26T12:12:00.461Z,6.73
2017-11-26T12:14:29.858Z,5.47
2017-11-26T12:16:59.040Z,5.40
2017-11-26T12:19:28.245Z,6.23
2017-11-26T12:21:57.484Z,6.07
2017-11-26T12:24:27.434Z,6.60
2017-11-26T12:26:56.636Z,5.67
2017-11-26T12:29:25.827Z,6.10
2017-11-26T12:31:55.071Z,5.97
2017-11-26T12:34:25.036Z,6.40
2017-11-26T12:36:54.258Z,6.60
2017-11-26T12:39:23.457Z,5.93
2017-11-26T12:41:52.744Z,6.20
2017-11-26T12:44:21.940Z,6.20
2017-11-26T12:46:51.128Z,6.17
2017-11-26T12:49:20.350Z,6.63
2017-11-26T12:51:49.577Z,6.00
2017-11-26T12:54:19.553Z,5.73
2017-11-26T12:56:49.054Z,6.13
2017-11-26T12:59:18.276Z,6.30
2017-11-26T13:01:47.468Z,6.17
2017-11-26T13:04:17.477Z,7.77
2017-11-26T13:06:47.458Z,5.73
2017-11-26T13:09:16.651Z,6.93
2017-11-26T13:11:45.817Z,6.87
2017-11-26T13:14:15.800Z,6.50
2017-11-26T13:16:45.178Z,5.80
2017-11-26T13:19:14.447Z,6.93
2017-11-26T13:21:44.460Z,7.07
2017-11-26T13:24:13.779Z,7.10
2017-11-26T13:26:42.996Z,7.10
2017-11-26T13:29:12.218Z,6.90
2017-11-26T13:31:41.511Z,6.40
2017-11-26T13:34:11.695Z,6.93
2017-11-26T13:36:40.924Z,7.00
2017-11-26T13:39:10.132Z,7.43
2017-11-26T13:41:39.354Z,6.50
2017-11-26T13:44:08.520Z,7.73
2017-11-26T13:46:37.767Z,6.90
2017-11-26T13:49:06.986Z,6.67
2017-11-26T13:51:36.209Z,6.43
2017-11-26T13:54:05.418Z,7.10
2017-11-26T13:56:34.600Z,6.33
2017-11-26T13:59:03.862Z,6.37
2017-11-26T14:01:33.078Z,7.30
2017-11-26T14:04:02.307Z,6.50
2017-11-26T14:06:31.558Z,8.43
2017-11-26T14:09:00.796Z,7.30
2017-11-26T14:11:30.027Z,7.33
2017-11-26T14:13:59.993Z,6.60
2017-11-26T14:16:29.348Z,6.40
2017-11-26T14:18:59.321Z,5.90
2017-11-26T14:21:28.524Z,6.80
2017-11-26T14:23:58.605Z,6.30
2017-11-26T14:26:27.907Z,7.93
2017-11-26T14:28:57.111Z,7.40
2017-11-26T14:31:26.354Z,8.43
2017-11-26T14:33:55.566Z,6.97
2017-11-26T14:36:25.508Z,7.00
2017-11-26T14:38:54.847Z,7.50
2017-11-26T14:41:24.042Z,7.60
2017-11-26T14:43:53.344Z,8.60
2017-11-26T14:46:22.541Z,9.63
2017-11-26T14:48:51.707Z,8.20
2017-11-26T14:51:20.939Z,8.30
2017-11-26T14:53:50.137Z,9.30
2017-11-26T14:56:19.430Z,8.43
2017-11-26T14:58:48.696Z,8.17
2017-11-26T15:01:17.862Z,7.10
2017-11-26T15:03:47.074Z,6.67
2017-11-26T15:06:16.304Z,7.30
2017-11-26T15:08:45.517Z,8.10
2017-11-26T15:11:14.712Z,7.57
2017-11-26T15:13:43.917Z,7.93
2017-11-26T15:16:13.140Z,7.43
2017-11-26T15:18:43.194Z,8.10
2017-11-26T15:21:12.394Z,7.87
2017-11-26T15:23:41.662Z,7.90
2017-11-26T15:26:10.903Z,8.90
2017-11-26T15:28:40.124Z,7.37
2017-11-26T15:31:09.285Z,8.00
2017-11-26T15:33:38.535Z,10.00
2017-11-26T15:36:07.745Z,8.13
2017-11-26T15:38:36.945Z,9.80
2017-11-26T15:41:06.936Z,9.80
2017-11-26T15:43:36.152Z,7.73
2017-11-26T15:46:05.361Z,7.03
2017-11-26T15:48:35.440Z,8.10
2017-11-26T15:51:04.714Z,8.17
2017-11-26T15:53:33.925Z,9.10
2017-11-26T15:56:03.175Z,9.30
2017-11-26T15:58:32.398Z,8.73
2017-11-26T16:01:01.566Z,7.90
2017-11-26T16:03:30.824Z,9.27
2017-11-26T16:05:59.980Z,8.47
2017-11-26T16:08:29.245Z,8.17
2017-11-26T16:10:58.483Z,8.00
2017-11-26T16:13:27.797Z,8.10
2017-11-26T16:15:57.067Z,7.40
2017-11-26T16:18:26.297Z,7.60
2017-11-26T16:20:55.514Z,7.13
2017-11-26T16:23:24.781Z,7.10
2017-11-26T16:25:53.958Z,7.97
2017-11-26T16:28:23.183Z,10.07
2017-11-26T16:30:52.492Z,11.27
2017-11-26T16:33:21.701Z,12.30
2017-11-26T16:35:52.491Z,11.93
2017-11-26T16:38:22.442Z,9.83
2017-11-26T16:40:51.717Z,12.37
2017-11-26T16:43:20.906Z,13.00
2017-11-26T16:45:50.142Z,11.73
2017-11-26T16:48:19.373Z,12.50
2017-11-26T16:50:49.355Z,10.23
2017-11-26T16:53:18.597Z,10.23
2017-11-26T16:55:48.687Z,11.07
2017-11-26T16:58:17.900Z,12.73
2017-11-26T17:00:47.963Z,12.13
2017-11-26T17:03:19.015Z,11.50
2017-11-26T17:05:49.072Z,12.20
2017-11-26T17:08:18.354Z,13.43
2017-11-26T17:10:47.537Z,12.23
2017-11-26T17:13:17.453Z,12.57
2017-11-26T17:15:46.638Z,12.43
2017-11-26T17:18:15.878Z,11.87
2017-11-26T17:20:45.877Z,11.10
2017-11-26T17:23:15.160Z,12.57
2017-11-26T17:25:44.451Z,13.13
2017-11-26T17:28:13.713Z,12.27
2017-11-26T17:30:43.652Z,12.67
2017-11-26T17:33:12.903Z,10.83
2017-11-26T17:35:42.121Z,13.23
2017-11-26T17:38:11.327Z,12.90
2017-11-26T17:40:40.625Z,10.63
2017-11-26T17:43:09.834Z,13.00
2017-11-26T17:45:39.077Z,11.50
2017-11-26T17:48:08.266Z,13.37
2017-11-26T17:50:37.500Z,12.10
2017-11-26T17:53:07.538Z,12.07
2017-11-26T17:55:36.761Z,11.60
2017-11-26T17:58:05.947Z,11.10
2017-11-26T18:00:35.701Z,10.80
2017-11-26T18:03:05.006Z,10.80
2017-11-26T18:05:34.232Z,11.37
2017-11-26T18:08:03.492Z,10.70
2017-11-26T18:10:32.755Z,9.80
2017-11-26T18:13:01.984Z,9.37
2017-11-26T18:15:31.953Z,8.73
2017-11-26T18:18:01.962Z,9.47
2017-11-26T18:20:31.268Z,8.90
2017-11-26T18:23:00.493Z,7.77
2017-11-26T18:25:29.939Z,8.60
2017-11-26T18:27:59.181Z,8.40
2017-11-26T18:30:28.490Z,8.97
2017-11-26T18:32:57.797Z,10.10
2017-11-26T18:35:27.828Z,9.37
2017-11-26T18:37:57.020Z,7.93
2017-11-26T18:40:26.374Z,9.23
2017-11-26T18:42:55.634Z,8.47
2017-11-26T18:45:25.640Z,8.83
2017-11-26T18:47:54.943Z,8.80
2017-11-26T18:50:24.224Z,9.10
2017-11-26T18:52:53.470Z,8.40
2017-11-26T18:55:23.457Z,8.60
2017-11-26T18:57:52.716Z,9.47
2017-11-26T19:00:21.937Z,9.30
2017-11-26T19:02:51.157Z,10.23
2017-11-26T19:05:20.460Z,9.70
2017-11-26T19:07:49.724Z,10.00
2017-11-26T19:10:19.003Z,10.30
2017-11-26T19:12:48.233Z,9.47
2017-11-26T19:15:17.597Z,9.80
2017-11-26T19:17:46.810Z,9.87
2017-11-26T19:20:16.046Z,9.03
2017-11-26T19:22:45.329Z,9.50
2017-11-26T19:25:15.369Z,9.20
2017-11-26T19:27:44.606Z,9.50
2017-11-26T19:30:13.921Z,9.80
2017-11-26T19:32:43.199Z,10.17
2017-11-26T19:35:12.629Z,9.03
2017-11-26T19:37:41.898Z,9.70
2017-11-26T19:40:11.903Z,9.87
2017-11-26T19:42:41.908Z,9.43
2017-11-26T19:45:11.897Z,10.30
2017-11-26T19:47:41.184Z,7.93
2017-11-26T19:50:11.180Z,8.50
2017-11-26T19:52:40.416Z,9.20
2017-11-26T19:55:10.514Z,9.90
2017-11-26T19:57:40.917Z,11.50
2017-11-26T20:00:10.180Z,10.87
2017-11-26T20:02:40.266Z,10.67
2017-11-26T20:05:09.581Z,9.60
2017-11-26T20:07:38.957Z,10.30
2017-11-26T20:10:08.223Z,10.57
2017-11-26T20:12:37.523Z,10.50
2017-11-26T20:15:07.477Z,11.33
2017-11-26T20:17:36.805Z,11.53
2017-11-26T20:20:07.571Z,11.80
2017-11-26T20:22:36.825Z,11.23
2017-11-26T20:25:06.127Z,12.70
2017-11-26T20:27:35.411Z,11.80
2017-11-26T20:30:04.641Z,12.40
2017-11-26T20:32:34.733Z,13.00
2017-11-26T20:35:03.965Z,11.43
2017-11-26T20:37:33.200Z,10.93
2017-11-26T20:40:02.458Z,10.60
2017-11-26T20:42:31.696Z,11.67
2017-11-26T20:45:00.931Z,9.80
2017-11-26T20:47:30.172Z,11.60
2017-11-26T20:49:59.401Z,9.30
2017-11-26T20:52:28.725Z,10.33
2017-11-26T20:54:57.934Z,10.10
2017-11-26T20:57:27.237Z,9.77
2017-11-26T20:59:56.487Z,9.23
2017-11-26T21:02:25.706Z,9.10
2017-11-26T21:04:54.979Z,9.43
2017-11-26T21:07:24.221Z,9.27
2017-11-26T21:09:53.598Z,9.73
2017-11-26T21:12:22.793Z,9.10
2017-11-26T21:14:52.049Z,10.43
2017-11-26T21:17:22.066Z,10.40
2017-11-26T21:19:52.061Z,10.60
2017-11-26T21:22:21.330Z,10.30
2017-11-26T21:24:50.796Z,11.47
2017-11-26T21:27:20.016Z,10.43
2017-11-26T21:29:49.253Z,10.93
2017-11-26T21:32:18.422Z,9.97
2017-11-26T21:34:47.738Z,9.73
2017-11-26T21:37:16.986Z,10.23
2017-11-26T21:39:46.323Z,9.03
2017-11-26T21:42:15.684Z,9.10
2017-11-26T21:44:44.895Z,8.10
2017-11-26T21:47:14.088Z,6.80
2017-11-26T21:49:43.383Z,7.80
2017-11-26T21:52:13.369Z,6.57
2017-11-26T21:54:43.736Z,7.30
2017-11-26T21:57:12.944Z,6.90
2017-11-26T21:59:42.153Z,8.40
2017-11-26T22:02:11.429Z,8.60
2017-11-26T22:04:40.643Z,8.70
2017-11-26T22:07:09.885Z,8.53
2017-11-26T22:09:39.890Z,8.43
2017-11-26T22:12:09.274Z,8.27
2017-11-26T22:14:38.512Z,9.60
2017-11-26T22:17:07.735Z,9.30
2017-11-26T22:19:36.993Z,9.80
2017-11-26T22:22:06.997Z,9.47
2017-11-26T22:24:36.236Z,9.53
2017-11-26T22:27:05.615Z,8.93
2017-11-26T22:29:35.727Z,10.30
2017-11-26T22:32:05.699Z,9.10
2017-11-26T22:34:34.914Z,9.67
2017-11-26T22:37:04.136Z,9.93
2017-11-26T22:39:33.356Z,10.93
2017-11-26T22:42:02.599Z,10.50
2017-11-26T22:44:31.892Z,11.53
2017-11-26T22:47:01.861Z,11.50
2017-11-26T22:49:31.116Z,11.40
2017-11-26T22:52:00.317Z,11.83
2017-11-26T22:54:29.563Z,11.40
2017-11-26T22:56:58.780Z,11.00
2017-11-26T22:59:27.975Z,11.67
2017-11-26T23:01:57.219Z,8.43
2017-11-26T23:04:26.421Z,9.40
2017-11-26T23:06:55.629Z,6.77
2017-11-26T23:09:25.659Z,6.10
2017-11-26T23:11:55.622Z,5.43
2017-11-26T23:14:24.816Z,4.47
2017-11-26T23:16:54.801Z,3.93
2017-11-26T23:19:24.009Z,3.87
2017-11-26T23:21:53.309Z,4.17
2017-11-26T23:24:23.296Z,3.90
2017-11-26T23:26:52.479Z,5.30
2017-11-26T23:29:21.668Z,6.60
2017-11-26T23:31:50.856Z,7.00
2017-11-26T23:34:20.100Z,7.13
2017-11-26T23:36:49.337Z,7.83
2017-11-26T23:39:19.342Z,8.63
2017-11-26T23:41:48.549Z,8.50
2017-11-26T23:44:17.765Z,10.57
2017-11-26T23:46:46.997Z,10.40
2017-11-26T23:49:16.978Z,9.40
2017-11-26T23:51:46.192Z,10.20
2017-11-26T23:54:16.169Z,10.20
2017-11-26T23:56:45.369Z,9.20
2017-11-26T23:59:14.560Z,9.30
